sensor_id;sensor_type;location;lat;lon;timestamp;P1;durP1;ratioP1;P2;durP2;ratioP2
33740;SDS011;20065;48.380;10.892;2023-02-11T00:02:16;57.80;;;28.23;;
33740;SDS011;20065;48.380;10.892;2023-02-11T00:05:02;52.50;;;26.83;;
33740;SDS011;20065;48.380;10.892;2023-02-11T00:07:49;58.15;;;30.02;;
33740;SDS011;20065;48.380;10.892;2023-02-11T00:10:35;54.53;;;29.10;;
33740;SDS011;20065;48.380;10.892;2023-02-11T00:13:22;50.65;;;27.92;;
33740;SDS011;20065;48.380;10.892;2023-02-11T00:16:11;53.50;;;30.35;;
33740;SDS011;20065;48.380;10.892;2023-02-11T00:18:59;57.55;;;30.42;;
33740;SDS011;20065;48.380;10.892;2023-02-11T00:21:46;53.35;;;28.48;;
33740;SDS011;20065;48.380;10.892;2023-02-11T00:24:32;52.03;;;27.90;;
33740;SDS011;20065;48.380;10.892;2023-02-11T00:27:20;49.67;;;27.45;;
33740;SDS011;20065;48.380;10.892;2023-02-11T00:30:06;50.22;;;28.35;;
33740;SDS011;20065;48.380;10.892;2023-02-11T00:32:53;50.25;;;29.13;;
33740;SDS011;20065;48.380;10.892;2023-02-11T00:35:39;55.88;;;29.02;;
33740;SDS011;20065;48.380;10.892;2023-02-11T00:38:26;55.95;;;28.88;;
33740;SDS011;20065;48.380;10.892;2023-02-11T00:41:13;49.90;;;27.15;;
33740;SDS011;20065;48.380;10.892;2023-02-11T00:44:00;57.03;;;29.08;;
33740;SDS011;20065;48.380;10.892;2023-02-11T00:46:48;53.28;;;28.63;;
33740;SDS011;20065;48.380;10.892;2023-02-11T00:49:34;52.35;;;26.88;;
33740;SDS011;20065;48.380;10.892;2023-02-11T00:52:21;52.55;;;28.75;;
33740;SDS011;20065;48.380;10.892;2023-02-11T00:55:07;58.15;;;28.60;;
33740;SDS011;20065;48.380;10.892;2023-02-11T00:57:53;53.13;;;29.38;;
33740;SDS011;20065;48.380;10.892;2023-02-11T01:00:43;59.95;;;30.52;;
33740;SDS011;20065;48.380;10.892;2023-02-11T01:03:30;54.60;;;28.30;;
33740;SDS011;20065;48.380;10.892;2023-02-11T01:06:17;50.67;;;27.67;;
33740;SDS011;20065;48.380;10.892;2023-02-11T01:09:04;52.50;;;27.02;;
33740;SDS011;20065;48.380;10.892;2023-02-11T01:11:51;54.30;;;28.67;;
33740;SDS011;20065;48.380;10.892;2023-02-11T01:14:37;51.38;;;27.27;;
33740;SDS011;20065;48.380;10.892;2023-02-11T01:17:23;63.08;;;29.58;;
33740;SDS011;20065;48.380;10.892;2023-02-11T01:20:12;54.95;;;27.15;;
33740;SDS011;20065;48.380;10.892;2023-02-11T01:23:01;56.38;;;27.00;;
33740;SDS011;20065;48.380;10.892;2023-02-11T01:25:48;54.30;;;29.20;;
33740;SDS011;20065;48.380;10.892;2023-02-11T01:28:35;48.30;;;27.15;;
33740;SDS011;20065;48.380;10.892;2023-02-11T01:31:21;49.78;;;27.02;;
33740;SDS011;20065;48.380;10.892;2023-02-11T01:34:07;50.35;;;28.23;;
33740;SDS011;20065;48.380;10.892;2023-02-11T01:36:58;49.22;;;28.33;;
33740;SDS011;20065;48.380;10.892;2023-02-11T01:39:47;52.88;;;28.52;;
33740;SDS011;20065;48.380;10.892;2023-02-11T01:42:34;55.60;;;27.67;;
33740;SDS011;20065;48.380;10.892;2023-02-11T01:51:19;54.35;;;28.38;;
33740;SDS011;20065;48.380;10.892;2023-02-11T01:54:14;57.15;;;29.15;;
33740;SDS011;20065;48.380;10.892;2023-02-11T01:57:23;53.05;;;28.15;;
33740;SDS011;20065;48.380;10.892;2023-02-11T02:00:21;54.05;;;28.13;;
33740;SDS011;20065;48.380;10.892;2023-02-11T02:03:11;63.22;;;28.70;;
33740;SDS011;20065;48.380;10.892;2023-02-11T02:09:21;60.28;;;30.35;;
33740;SDS011;20065;48.380;10.892;2023-02-11T02:12:11;52.95;;;28.08;;
33740;SDS011;20065;48.380;10.892;2023-02-11T02:30:59;53.13;;;26.23;;
33740;SDS011;20065;48.380;10.892;2023-02-11T02:33:55;52.83;;;26.02;;
33740;SDS011;20065;48.380;10.892;2023-02-11T02:36:50;53.80;;;29.10;;
33740;SDS011;20065;48.380;10.892;2023-02-11T02:39:45;47.20;;;26.15;;
33740;SDS011;20065;48.380;10.892;2023-02-11T02:42:34;48.38;;;25.88;;
33740;SDS011;20065;48.380;10.892;2023-02-11T02:45:22;50.75;;;26.30;;
33740;SDS011;20065;48.380;10.892;2023-02-11T03:01:12;54.08;;;26.55;;
33740;SDS011;20065;48.380;10.892;2023-02-11T03:06:59;49.42;;;25.75;;
33740;SDS011;20065;48.380;10.892;2023-02-11T03:12:46;49.72;;;25.05;;
33740;SDS011;20065;48.380;10.892;2023-02-11T03:15:36;50.40;;;26.80;;
33740;SDS011;20065;48.380;10.892;2023-02-11T03:18:26;52.58;;;27.95;;
33740;SDS011;20065;48.380;10.892;2023-02-11T03:21:15;50.40;;;26.42;;
33740;SDS011;20065;48.380;10.892;2023-02-11T03:24:08;53.85;;;26.52;;
33740;SDS011;20065;48.380;10.892;2023-02-11T03:27:19;58.22;;;26.65;;
33740;SDS011;20065;48.380;10.892;2023-02-11T03:30:27;48.65;;;25.08;;
33740;SDS011;20065;48.380;10.892;2023-02-11T03:33:24;51.63;;;26.25;;
33740;SDS011;20065;48.380;10.892;2023-02-11T03:36:21;49.22;;;24.08;;
33740;SDS011;20065;48.380;10.892;2023-02-11T03:39:15;43.80;;;23.02;;
33740;SDS011;20065;48.380;10.892;2023-02-11T03:42:05;45.10;;;25.55;;
33740;SDS011;20065;48.380;10.892;2023-02-11T03:44:57;49.28;;;25.15;;
33740;SDS011;20065;48.380;10.892;2023-02-11T03:47:53;45.85;;;23.25;;
33740;SDS011;20065;48.380;10.892;2023-02-11T03:50:45;44.30;;;24.00;;
33740;SDS011;20065;48.380;10.892;2023-02-11T03:53:35;48.95;;;24.52;;
33740;SDS011;20065;48.380;10.892;2023-02-11T03:56:26;42.95;;;22.02;;
33740;SDS011;20065;48.380;10.892;2023-02-11T03:59:16;48.35;;;23.42;;
33740;SDS011;20065;48.380;10.892;2023-02-11T04:02:02;47.55;;;23.67;;
33740;SDS011;20065;48.380;10.892;2023-02-11T04:04:48;45.65;;;22.63;;
33740;SDS011;20065;48.380;10.892;2023-02-11T04:07:35;42.75;;;22.55;;
33740;SDS011;20065;48.380;10.892;2023-02-11T04:10:21;37.40;;;22.20;;
33740;SDS011;20065;48.380;10.892;2023-02-11T04:13:07;38.40;;;21.50;;
33740;SDS011;20065;48.380;10.892;2023-02-11T04:15:53;47.83;;;23.70;;
33740;SDS011;20065;48.380;10.892;2023-02-11T04:18:39;46.70;;;24.58;;
33740;SDS011;20065;48.380;10.892;2023-02-11T04:21:25;49.70;;;24.95;;
33740;SDS011;20065;48.380;10.892;2023-02-11T04:24:12;45.42;;;23.27;;
33740;SDS011;20065;48.380;10.892;2023-02-11T04:26:58;42.75;;;21.48;;
33740;SDS011;20065;48.380;10.892;2023-02-11T04:29:44;39.35;;;21.92;;
33740;SDS011;20065;48.380;10.892;2023-02-11T04:32:30;44.22;;;21.75;;
33740;SDS011;20065;48.380;10.892;2023-02-11T04:35:16;45.30;;;24.17;;
33740;SDS011;20065;48.380;10.892;2023-02-11T04:38:02;45.03;;;23.35;;
33740;SDS011;20065;48.380;10.892;2023-02-11T04:40:49;48.75;;;23.13;;
33740;SDS011;20065;48.380;10.892;2023-02-11T04:43:35;41.38;;;22.85;;
33740;SDS011;20065;48.380;10.892;2023-02-11T04:46:21;42.20;;;22.80;;
33740;SDS011;20065;48.380;10.892;2023-02-11T04:49:09;48.00;;;23.60;;
33740;SDS011;20065;48.380;10.892;2023-02-11T04:52:00;44.45;;;23.77;;
33740;SDS011;20065;48.380;10.892;2023-02-11T04:54:46;42.42;;;21.67;;
33740;SDS011;20065;48.380;10.892;2023-02-11T04:57:32;46.38;;;25.02;;
33740;SDS011;20065;48.380;10.892;2023-02-11T05:00:18;47.13;;;24.48;;
33740;SDS011;20065;48.380;10.892;2023-02-11T05:03:05;47.22;;;25.60;;
33740;SDS011;20065;48.380;10.892;2023-02-11T05:05:51;40.42;;;21.33;;
33740;SDS011;20065;48.380;10.892;2023-02-11T05:08:37;43.80;;;21.45;;
33740;SDS011;20065;48.380;10.892;2023-02-11T05:11:24;46.28;;;22.23;;
33740;SDS011;20065;48.380;10.892;2023-02-11T05:14:10;49.08;;;23.73;;
33740;SDS011;20065;48.380;10.892;2023-02-11T05:16:56;43.78;;;22.38;;
33740;SDS011;20065;48.380;10.892;2023-02-11T05:19:42;38.40;;;20.20;;
33740;SDS011;20065;48.380;10.892;2023-02-11T05:22:28;42.92;;;23.08;;
33740;SDS011;20065;48.380;10.892;2023-02-11T05:25:15;41.03;;;23.02;;
33740;SDS011;20065;48.380;10.892;2023-02-11T05:28:01;41.22;;;21.38;;
33740;SDS011;20065;48.380;10.892;2023-02-11T05:30:48;44.65;;;21.42;;
33740;SDS011;20065;48.380;10.892;2023-02-11T05:33:34;40.47;;;20.15;;
33740;SDS011;20065;48.380;10.892;2023-02-11T05:36:20;53.40;;;21.85;;
33740;SDS011;20065;48.380;10.892;2023-02-11T05:39:06;38.47;;;20.35;;
33740;SDS011;20065;48.380;10.892;2023-02-11T05:41:52;42.22;;;22.80;;
33740;SDS011;20065;48.380;10.892;2023-02-11T05:44:39;36.90;;;20.15;;
33740;SDS011;20065;48.380;10.892;2023-02-11T05:47:25;37.40;;;20.08;;
33740;SDS011;20065;48.380;10.892;2023-02-11T05:50:11;36.33;;;20.55;;
33740;SDS011;20065;48.380;10.892;2023-02-11T05:52:57;39.60;;;20.90;;
33740;SDS011;20065;48.380;10.892;2023-02-11T05:55:43;38.33;;;20.33;;
33740;SDS011;20065;48.380;10.892;2023-02-11T05:58:30;35.60;;;18.90;;
33740;SDS011;20065;48.380;10.892;2023-02-11T06:01:17;37.55;;;19.48;;
33740;SDS011;20065;48.380;10.892;2023-02-11T06:04:03;36.63;;;19.80;;
33740;SDS011;20065;48.380;10.892;2023-02-11T06:06:49;38.30;;;20.00;;
33740;SDS011;20065;48.380;10.892;2023-02-11T06:09:35;37.95;;;19.65;;
33740;SDS011;20065;48.380;10.892;2023-02-11T06:12:22;34.40;;;17.33;;
33740;SDS011;20065;48.380;10.892;2023-02-11T06:15:08;39.78;;;20.42;;
33740;SDS011;20065;48.380;10.892;2023-02-11T06:17:55;36.70;;;17.67;;
33740;SDS011;20065;48.380;10.892;2023-02-11T06:20:41;40.15;;;19.73;;
33740;SDS011;20065;48.380;10.892;2023-02-11T06:23:27;29.20;;;17.70;;
33740;SDS011;20065;48.380;10.892;2023-02-11T06:26:17;35.60;;;19.13;;
33740;SDS011;20065;48.380;10.892;2023-02-11T06:29:05;34.63;;;20.63;;
33740;SDS011;20065;48.380;10.892;2023-02-11T06:31:51;30.58;;;17.48;;
33740;SDS011;20065;48.380;10.892;2023-02-11T06:34:37;29.08;;;16.88;;
33740;SDS011;20065;48.380;10.892;2023-02-11T06:37:24;36.65;;;17.05;;
33740;SDS011;20065;48.380;10.892;2023-02-11T06:40:10;35.10;;;18.25;;
33740;SDS011;20065;48.380;10.892;2023-02-11T06:42:57;31.27;;;15.75;;
33740;SDS011;20065;48.380;10.892;2023-02-11T06:45:43;35.05;;;17.45;;
33740;SDS011;20065;48.380;10.892;2023-02-11T06:48:29;33.55;;;17.52;;
33740;SDS011;20065;48.380;10.892;2023-02-11T06:51:15;30.15;;;17.83;;
33740;SDS011;20065;48.380;10.892;2023-02-11T06:54:03;37.58;;;16.55;;
33740;SDS011;20065;48.380;10.892;2023-02-11T06:56:50;33.78;;;18.08;;
33740;SDS011;20065;48.380;10.892;2023-02-11T06:59:37;33.80;;;17.60;;
33740;SDS011;20065;48.380;10.892;2023-02-11T07:02:23;35.08;;;19.15;;
33740;SDS011;20065;48.380;10.892;2023-02-11T07:05:09;32.70;;;17.10;;
33740;SDS011;20065;48.380;10.892;2023-02-11T07:07:55;35.05;;;18.23;;
33740;SDS011;20065;48.380;10.892;2023-02-11T07:10:42;31.85;;;18.15;;
33740;SDS011;20065;48.380;10.892;2023-02-11T07:13:28;36.88;;;17.85;;
33740;SDS011;20065;48.380;10.892;2023-02-11T07:16:15;33.30;;;18.40;;
33740;SDS011;20065;48.380;10.892;2023-02-11T07:19:01;33.70;;;17.05;;
33740;SDS011;20065;48.380;10.892;2023-02-11T07:21:48;30.63;;;15.68;;
33740;SDS011;20065;48.380;10.892;2023-02-11T07:24:34;33.50;;;16.00;;
33740;SDS011;20065;48.380;10.892;2023-02-11T07:27:25;31.30;;;17.40;;
33740;SDS011;20065;48.380;10.892;2023-02-11T07:30:11;40.40;;;17.80;;
33740;SDS011;20065;48.380;10.892;2023-02-11T07:32:58;30.48;;;16.98;;
33740;SDS011;20065;48.380;10.892;2023-02-11T07:35:44;32.55;;;17.38;;
33740;SDS011;20065;48.380;10.892;2023-02-11T07:38:31;37.97;;;18.25;;
33740;SDS011;20065;48.380;10.892;2023-02-11T07:41:19;32.58;;;15.25;;
33740;SDS011;20065;48.380;10.892;2023-02-11T07:44:07;35.33;;;16.27;;
33740;SDS011;20065;48.380;10.892;2023-02-11T07:46:53;29.80;;;18.13;;
33740;SDS011;20065;48.380;10.892;2023-02-11T07:49:39;31.25;;;16.90;;
33740;SDS011;20065;48.380;10.892;2023-02-11T07:52:28;32.08;;;15.57;;
33740;SDS011;20065;48.380;10.892;2023-02-11T07:55:15;30.58;;;15.85;;
33740;SDS011;20065;48.380;10.892;2023-02-11T07:58:01;29.15;;;15.75;;
33740;SDS011;20065;48.380;10.892;2023-02-11T08:00:47;24.42;;;14.25;;
33740;SDS011;20065;48.380;10.892;2023-02-11T08:03:34;29.33;;;16.25;;
33740;SDS011;20065;48.380;10.892;2023-02-11T08:06:22;29.33;;;15.13;;
33740;SDS011;20065;48.380;10.892;2023-02-11T08:09:10;29.63;;;16.35;;
33740;SDS011;20065;48.380;10.892;2023-02-11T08:12:00;27.08;;;15.60;;
33740;SDS011;20065;48.380;10.892;2023-02-11T08:14:46;27.13;;;15.45;;
33740;SDS011;20065;48.380;10.892;2023-02-11T08:17:33;28.33;;;16.52;;
33740;SDS011;20065;48.380;10.892;2023-02-11T08:20:20;32.35;;;17.13;;
33740;SDS011;20065;48.380;10.892;2023-02-11T08:23:06;26.08;;;13.80;;
33740;SDS011;20065;48.380;10.892;2023-02-11T08:25:52;36.00;;;16.75;;
33740;SDS011;20065;48.380;10.892;2023-02-11T08:28:39;29.00;;;15.07;;
33740;SDS011;20065;48.380;10.892;2023-02-11T08:31:29;27.10;;;14.65;;
33740;SDS011;20065;48.380;10.892;2023-02-11T08:34:18;28.83;;;15.45;;
33740;SDS011;20065;48.380;10.892;2023-02-11T08:37:05;29.15;;;16.17;;
33740;SDS011;20065;48.380;10.892;2023-02-11T08:39:51;26.20;;;15.27;;
33740;SDS011;20065;48.380;10.892;2023-02-11T08:42:37;27.40;;;16.00;;
33740;SDS011;20065;48.380;10.892;2023-02-11T08:45:24;29.35;;;14.90;;
33740;SDS011;20065;48.380;10.892;2023-02-11T08:48:10;28.58;;;15.20;;
33740;SDS011;20065;48.380;10.892;2023-02-11T08:50:56;27.90;;;15.40;;
33740;SDS011;20065;48.380;10.892;2023-02-11T08:53:42;33.20;;;17.30;;
33740;SDS011;20065;48.380;10.892;2023-02-11T08:56:29;28.30;;;16.05;;
33740;SDS011;20065;48.380;10.892;2023-02-11T08:59:16;33.80;;;17.60;;
33740;SDS011;20065;48.380;10.892;2023-02-11T09:02:02;37.30;;;16.90;;
33740;SDS011;20065;48.380;10.892;2023-02-11T09:04:49;36.47;;;18.35;;
33740;SDS011;20065;48.380;10.892;2023-02-11T09:07:35;32.88;;;18.67;;
33740;SDS011;20065;48.380;10.892;2023-02-11T09:10:21;30.83;;;17.17;;
33740;SDS011;20065;48.380;10.892;2023-02-11T09:13:08;33.67;;;17.73;;
33740;SDS011;20065;48.380;10.892;2023-02-11T09:15:55;31.23;;;18.13;;
33740;SDS011;20065;48.380;10.892;2023-02-11T09:18:41;31.30;;;16.10;;
33740;SDS011;20065;48.380;10.892;2023-02-11T09:21:28;32.22;;;17.70;;
33740;SDS011;20065;48.380;10.892;2023-02-11T09:24:15;35.80;;;17.35;;
33740;SDS011;20065;48.380;10.892;2023-02-11T09:27:01;33.13;;;17.55;;
33740;SDS011;20065;48.380;10.892;2023-02-11T09:29:48;31.05;;;16.58;;
33740;SDS011;20065;48.380;10.892;2023-02-11T09:32:34;28.60;;;17.63;;
33740;SDS011;20065;48.380;10.892;2023-02-11T09:35:20;26.83;;;16.85;;
33740;SDS011;20065;48.380;10.892;2023-02-11T09:38:06;27.50;;;15.00;;
33740;SDS011;20065;48.380;10.892;2023-02-11T09:40:52;28.02;;;16.52;;
33740;SDS011;20065;48.380;10.892;2023-02-11T09:43:43;25.88;;;16.88;;
33740;SDS011;20065;48.380;10.892;2023-02-11T09:46:37;28.85;;;16.88;;
33740;SDS011;20065;48.380;10.892;2023-02-11T09:58:33;34.22;;;17.48;;
33740;SDS011;20065;48.380;10.892;2023-02-11T10:14:18;29.17;;;15.50;;
33740;SDS011;20065;48.380;10.892;2023-02-11T10:17:04;31.40;;;16.95;;
33740;SDS011;20065;48.380;10.892;2023-02-11T10:23:09;24.85;;;14.45;;
33740;SDS011;20065;48.380;10.892;2023-02-11T10:26:01;26.13;;;14.43;;
33740;SDS011;20065;48.380;10.892;2023-02-11T10:28:48;28.83;;;15.52;;
33740;SDS011;20065;48.380;10.892;2023-02-11T10:31:38;29.52;;;15.45;;
33740;SDS011;20065;48.380;10.892;2023-02-11T10:34:28;25.35;;;14.48;;
33740;SDS011;20065;48.380;10.892;2023-02-11T10:37:14;28.70;;;14.57;;
33740;SDS011;20065;48.380;10.892;2023-02-11T10:40:00;30.42;;;15.60;;
33740;SDS011;20065;48.380;10.892;2023-02-11T10:42:47;30.38;;;15.90;;
33740;SDS011;20065;48.380;10.892;2023-02-11T10:45:36;32.10;;;15.77;;
33740;SDS011;20065;48.380;10.892;2023-02-11T10:48:49;30.92;;;16.58;;
33740;SDS011;20065;48.380;10.892;2023-02-11T10:51:38;31.42;;;17.80;;
33740;SDS011;20065;48.380;10.892;2023-02-11T10:54:24;37.00;;;18.80;;
33740;SDS011;20065;48.380;10.892;2023-02-11T10:57:15;32.28;;;16.45;;
33740;SDS011;20065;48.380;10.892;2023-02-11T11:00:05;30.05;;;17.98;;
33740;SDS011;20065;48.380;10.892;2023-02-11T11:06:11;30.48;;;17.17;;
33740;SDS011;20065;48.380;10.892;2023-02-11T11:08:58;30.63;;;17.20;;
33740;SDS011;20065;48.380;10.892;2023-02-11T11:11:54;27.08;;;16.15;;
33740;SDS011;20065;48.380;10.892;2023-02-11T11:14:50;30.17;;;17.35;;
33740;SDS011;20065;48.380;10.892;2023-02-11T11:18:07;30.85;;;16.23;;
33740;SDS011;20065;48.380;10.892;2023-02-11T11:20:57;32.08;;;17.52;;
33740;SDS011;20065;48.380;10.892;2023-02-11T11:23:53;28.88;;;16.70;;
33740;SDS011;20065;48.380;10.892;2023-02-11T11:26:48;29.88;;;16.08;;
33740;SDS011;20065;48.380;10.892;2023-02-11T11:29:47;32.35;;;18.60;;
33740;SDS011;20065;48.380;10.892;2023-02-11T11:32:35;24.17;;;14.85;;
33740;SDS011;20065;48.380;10.892;2023-02-11T11:35:26;33.58;;;16.50;;
33740;SDS011;20065;48.380;10.892;2023-02-11T11:38:13;27.13;;;13.98;;
33740;SDS011;20065;48.380;10.892;2023-02-11T11:44:20;25.05;;;13.63;;
33740;SDS011;20065;48.380;10.892;2023-02-11T11:53:14;25.67;;;13.57;;
33740;SDS011;20065;48.380;10.892;2023-02-11T11:56:31;22.65;;;12.43;;
33740;SDS011;20065;48.380;10.892;2023-02-11T11:59:19;19.35;;;11.98;;
33740;SDS011;20065;48.380;10.892;2023-02-11T12:02:34;21.45;;;13.13;;
33740;SDS011;20065;48.380;10.892;2023-02-11T12:37:06;24.63;;;13.10;;
33740;SDS011;20065;48.380;10.892;2023-02-11T12:43:46;21.63;;;12.07;;
33740;SDS011;20065;48.380;10.892;2023-02-11T12:56:05;21.95;;;11.60;;
33740;SDS011;20065;48.380;10.892;2023-02-11T13:02:13;17.33;;;11.75;;
33740;SDS011;20065;48.380;10.892;2023-02-11T13:11:40;26.40;;;11.60;;
33740;SDS011;20065;48.380;10.892;2023-02-11T13:14:36;17.85;;;10.70;;
33740;SDS011;20065;48.380;10.892;2023-02-11T13:17:50;17.15;;;10.73;;
33740;SDS011;20065;48.380;10.892;2023-02-11T13:20:57;19.42;;;11.63;;
33740;SDS011;20065;48.380;10.892;2023-02-11T13:27:19;19.02;;;10.27;;
33740;SDS011;20065;48.380;10.892;2023-02-11T13:33:20;18.92;;;10.90;;
33740;SDS011;20065;48.380;10.892;2023-02-11T13:36:18;16.83;;;10.63;;
33740;SDS011;20065;48.380;10.892;2023-02-11T13:39:16;17.55;;;10.65;;
33740;SDS011;20065;48.380;10.892;2023-02-11T13:42:10;14.68;;;10.70;;
33740;SDS011;20065;48.380;10.892;2023-02-11T13:45:00;18.45;;;10.15;;
33740;SDS011;20065;48.380;10.892;2023-02-11T13:47:46;18.00;;;11.00;;
33740;SDS011;20065;48.380;10.892;2023-02-11T13:50:37;16.55;;;9.57;;
33740;SDS011;20065;48.380;10.892;2023-02-11T13:53:44;16.15;;;10.40;;
33740;SDS011;20065;48.380;10.892;2023-02-11T14:05:27;19.15;;;10.40;;
33740;SDS011;20065;48.380;10.892;2023-02-11T14:08:34;19.42;;;11.13;;
33740;SDS011;20065;48.380;10.892;2023-02-11T14:11:44;17.38;;;10.68;;
33740;SDS011;20065;48.380;10.892;2023-02-11T14:14:31;16.35;;;10.80;;
33740;SDS011;20065;48.380;10.892;2023-02-11T14:17:25;16.98;;;11.32;;
33740;SDS011;20065;48.380;10.892;2023-02-11T14:20:34;16.23;;;10.77;;
33740;SDS011;20065;48.380;10.892;2023-02-11T14:23:22;18.88;;;10.23;;
33740;SDS011;20065;48.380;10.892;2023-02-11T14:41:22;20.30;;;10.80;;
33740;SDS011;20065;48.380;10.892;2023-02-11T14:44:14;16.75;;;11.32;;
33740;SDS011;20065;48.380;10.892;2023-02-11T14:47:03;17.58;;;11.10;;
33740;SDS011;20065;48.380;10.892;2023-02-11T14:49:50;16.33;;;11.15;;
33740;SDS011;20065;48.380;10.892;2023-02-11T14:52:36;17.77;;;11.05;;
33740;SDS011;20065;48.380;10.892;2023-02-11T14:55:33;15.13;;;10.38;;
33740;SDS011;20065;48.380;10.892;2023-02-11T15:04:22;19.70;;;11.55;;
33740;SDS011;20065;48.380;10.892;2023-02-11T15:07:09;22.92;;;11.65;;
33740;SDS011;20065;48.380;10.892;2023-02-11T15:09:58;18.42;;;11.82;;
33740;SDS011;20065;48.380;10.892;2023-02-11T15:12:44;19.55;;;11.43;;
33740;SDS011;20065;48.380;10.892;2023-02-11T15:15:34;22.50;;;11.65;;
33740;SDS011;20065;48.380;10.892;2023-02-11T15:18:31;19.95;;;12.48;;
33740;SDS011;20065;48.380;10.892;2023-02-11T15:21:27;19.38;;;11.35;;
33740;SDS011;20065;48.380;10.892;2023-02-11T15:27:13;22.60;;;13.00;;
33740;SDS011;20065;48.380;10.892;2023-02-11T15:30:07;22.95;;;13.60;;
33740;SDS011;20065;48.380;10.892;2023-02-11T15:33:18;20.38;;;13.20;;
33740;SDS011;20065;48.380;10.892;2023-02-11T15:36:08;21.13;;;12.95;;
33740;SDS011;20065;48.380;10.892;2023-02-11T15:39:26;17.85;;;11.30;;
33740;SDS011;20065;48.380;10.892;2023-02-11T15:42:26;16.58;;;9.32;;
33740;SDS011;20065;48.380;10.892;2023-02-11T15:50:53;15.77;;;9.55;;
33740;SDS011;20065;48.380;10.892;2023-02-11T15:53:43;18.35;;;10.75;;
33740;SDS011;20065;48.380;10.892;2023-02-11T15:56:39;20.58;;;10.60;;
33740;SDS011;20065;48.380;10.892;2023-02-11T15:59:30;14.80;;;9.85;;
33740;SDS011;20065;48.380;10.892;2023-02-11T16:02:28;19.60;;;10.18;;
33740;SDS011;20065;48.380;10.892;2023-02-11T16:05:23;18.15;;;10.43;;
33740;SDS011;20065;48.380;10.892;2023-02-11T16:08:27;15.45;;;10.90;;
33740;SDS011;20065;48.380;10.892;2023-02-11T16:11:21;18.40;;;10.02;;
33740;SDS011;20065;48.380;10.892;2023-02-11T16:14:31;19.45;;;11.05;;
33740;SDS011;20065;48.380;10.892;2023-02-11T16:17:26;20.63;;;9.88;;
33740;SDS011;20065;48.380;10.892;2023-02-11T16:20:18;17.40;;;10.88;;
33740;SDS011;20065;48.380;10.892;2023-02-11T16:23:06;16.50;;;11.40;;
33740;SDS011;20065;48.380;10.892;2023-02-11T16:25:57;17.58;;;11.10;;
33740;SDS011;20065;48.380;10.892;2023-02-11T16:29:46;22.35;;;12.02;;
33740;SDS011;20065;48.380;10.892;2023-02-11T16:32:22;25.23;;;13.70;;
33740;SDS011;20065;48.380;10.892;2023-02-11T16:35:11;20.85;;;12.85;;
33740;SDS011;20065;48.380;10.892;2023-02-11T16:38:11;19.30;;;12.85;;
33740;SDS011;20065;48.380;10.892;2023-02-11T16:40:58;20.48;;;13.15;;
33740;SDS011;20065;48.380;10.892;2023-02-11T16:43:44;16.92;;;11.18;;
33740;SDS011;20065;48.380;10.892;2023-02-11T16:46:31;20.67;;;13.75;;
33740;SDS011;20065;48.380;10.892;2023-02-11T16:49:28;25.42;;;13.43;;
33740;SDS011;20065;48.380;10.892;2023-02-11T16:52:20;17.73;;;11.10;;
33740;SDS011;20065;48.380;10.892;2023-02-11T16:55:08;22.88;;;12.40;;
33740;SDS011;20065;48.380;10.892;2023-02-11T16:57:55;23.33;;;12.45;;
33740;SDS011;20065;48.380;10.892;2023-02-11T17:00:42;21.45;;;12.30;;
33740;SDS011;20065;48.380;10.892;2023-02-11T17:03:30;23.85;;;15.15;;
33740;SDS011;20065;48.380;10.892;2023-02-11T17:06:24;21.73;;;13.75;;
33740;SDS011;20065;48.380;10.892;2023-02-11T17:09:15;24.20;;;13.95;;
33740;SDS011;20065;48.380;10.892;2023-02-11T17:12:05;21.38;;;13.20;;
33740;SDS011;20065;48.380;10.892;2023-02-11T17:14:51;31.00;;;18.45;;
33740;SDS011;20065;48.380;10.892;2023-02-11T17:17:41;37.83;;;17.80;;
33740;SDS011;20065;48.380;10.892;2023-02-11T17:20:27;23.33;;;15.63;;
33740;SDS011;20065;48.380;10.892;2023-02-11T17:23:14;28.67;;;17.33;;
33740;SDS011;20065;48.380;10.892;2023-02-11T17:26:00;28.17;;;16.85;;
33740;SDS011;20065;48.380;10.892;2023-02-11T17:28:46;33.15;;;19.40;;
33740;SDS011;20065;48.380;10.892;2023-02-11T17:31:33;28.10;;;16.92;;
33740;SDS011;20065;48.380;10.892;2023-02-11T17:34:21;30.20;;;18.27;;
33740;SDS011;20065;48.380;10.892;2023-02-11T17:37:07;33.60;;;17.20;;
33740;SDS011;20065;48.380;10.892;2023-02-11T17:39:54;29.67;;;17.25;;
33740;SDS011;20065;48.380;10.892;2023-02-11T17:42:40;30.20;;;17.05;;
33740;SDS011;20065;48.380;10.892;2023-02-11T17:45:27;35.03;;;18.70;;
33740;SDS011;20065;48.380;10.892;2023-02-11T17:48:14;36.03;;;18.25;;
33740;SDS011;20065;48.380;10.892;2023-02-11T17:51:00;34.75;;;19.05;;
33740;SDS011;20065;48.380;10.892;2023-02-11T17:53:46;27.42;;;16.77;;
33740;SDS011;20065;48.380;10.892;2023-02-11T17:56:33;29.33;;;17.73;;
33740;SDS011;20065;48.380;10.892;2023-02-11T17:59:20;28.23;;;17.25;;
33740;SDS011;20065;48.380;10.892;2023-02-11T18:02:08;29.92;;;17.58;;
33740;SDS011;20065;48.380;10.892;2023-02-11T18:04:56;30.35;;;16.58;;
33740;SDS011;20065;48.380;10.892;2023-02-11T18:07:43;32.75;;;17.55;;
33740;SDS011;20065;48.380;10.892;2023-02-11T18:10:29;27.63;;;15.60;;
33740;SDS011;20065;48.380;10.892;2023-02-11T18:13:17;29.25;;;17.95;;
33740;SDS011;20065;48.380;10.892;2023-02-11T18:16:04;32.08;;;17.75;;
33740;SDS011;20065;48.380;10.892;2023-02-11T18:18:52;28.52;;;16.67;;
33740;SDS011;20065;48.380;10.892;2023-02-11T18:21:39;35.13;;;17.38;;
33740;SDS011;20065;48.380;10.892;2023-02-11T18:24:26;28.90;;;17.50;;
33740;SDS011;20065;48.380;10.892;2023-02-11T18:27:12;33.97;;;19.25;;
33740;SDS011;20065;48.380;10.892;2023-02-11T18:29:58;31.55;;;18.73;;
33740;SDS011;20065;48.380;10.892;2023-02-11T18:32:44;28.85;;;18.05;;
33740;SDS011;20065;48.380;10.892;2023-02-11T18:35:31;29.10;;;18.20;;
33740;SDS011;20065;48.380;10.892;2023-02-11T18:38:17;32.05;;;18.52;;
33740;SDS011;20065;48.380;10.892;2023-02-11T18:41:03;35.13;;;19.88;;
33740;SDS011;20065;48.380;10.892;2023-02-11T18:43:51;30.05;;;17.63;;
33740;SDS011;20065;48.380;10.892;2023-02-11T18:46:37;28.85;;;17.45;;
33740;SDS011;20065;48.380;10.892;2023-02-11T18:49:24;31.35;;;17.30;;
33740;SDS011;20065;48.380;10.892;2023-02-11T18:52:10;28.60;;;18.98;;
33740;SDS011;20065;48.380;10.892;2023-02-11T18:54:56;38.75;;;21.73;;
33740;SDS011;20065;48.380;10.892;2023-02-11T18:57:42;36.15;;;20.30;;
33740;SDS011;20065;48.380;10.892;2023-02-11T19:00:29;34.83;;;21.13;;
33740;SDS011;20065;48.380;10.892;2023-02-11T19:03:15;36.60;;;22.23;;
33740;SDS011;20065;48.380;10.892;2023-02-11T19:06:02;35.95;;;20.88;;
33740;SDS011;20065;48.380;10.892;2023-02-11T19:08:49;34.28;;;20.15;;
33740;SDS011;20065;48.380;10.892;2023-02-11T19:11:37;29.00;;;18.98;;
33740;SDS011;20065;48.380;10.892;2023-02-11T19:14:35;37.60;;;19.30;;
33740;SDS011;20065;48.380;10.892;2023-02-11T19:17:21;33.58;;;20.17;;
33740;SDS011;20065;48.380;10.892;2023-02-11T19:20:07;43.78;;;22.77;;